Time;durP1;ratioP1;P1;durP2;ratioP2;P2;SDS_P1;SDS_P2;PMS_P1;PMS_P2;Temp;Humidity;BMP_temperature;BMP_pressure;BME280_temperature;BME280_humidity;BME280_pressure;Samples;Min_cycle;Max_cycle;Signal;HPM_P1;HPM_P2
2023/01/19 00:02:24;;;;;;;26.52;14.40;;;2.50;99.90;;;;;;5079956;28;20692;-82
2023/01/19 00:04:50;;;;;;;27.58;14.38;;;2.50;99.90;;;;;;5068554;28;20183;-82
2023/01/19 00:07:16;;;;;;;24.92;12.60;;;2.60;99.90;;;;;;5044680;28;20063;-83
2023/01/19 00:09:42;;;;;;;27.15;14.32;;;2.60;99.90;;;;;;5072189;28;20052;-83
2023/01/19 00:12:08;;;;;;;34.92;14.02;;;2.60;99.90;;;;;;5063702;28;20045;-82
2023/01/19 00:14:33;;;;;;;29.05;12.20;;;2.80;99.90;;;;;;5060593;28;20044;-82
2023/01/19 00:17:00;;;;;;;27.48;12.52;;;2.70;99.90;;;;;;5067493;28;20401;-85
2023/01/19 00:19:27;;;;;;;36.97;14.00;;;2.70;99.90;;;;;;5036934;28;20520;-85
2023/01/19 00:21:52;;;;;;;20.10;8.70;;;2.70;99.90;;;;;;5067500;28;20375;-84
2023/01/19 00:24:18;;;;;;;18.48;9.07;;;2.80;99.90;;;;;;5061734;28;20044;-83
2023/01/19 00:26:44;;;;;;;18.20;8.57;;;2.70;99.90;;;;;;5062777;28;20043;-82
2023/01/19 00:29:11;;;;;;;15.07;8.10;;;2.70;99.90;;;;;;5085573;28;20045;-83
2023/01/19 00:31:37;;;;;;;16.02;8.05;;;2.80;99.90;;;;;;5080911;28;20047;-82
2023/01/19 00:34:04;;;;;;;18.63;7.03;;;2.80;99.90;;;;;;5077645;28;20507;-86
2023/01/19 00:36:30;;;;;;;19.40;7.57;;;2.80;99.90;;;;;;5079292;28;20051;-83
2023/01/19 00:38:56;;;;;;;15.23;7.03;;;2.80;99.90;;;;;;5068123;28;20056;-83
2023/01/19 00:44:06;;;;;;;12.60;6.15;;;2.80;99.90;;;;;;5056500;28;20075;-84
2023/01/19 00:46:32;;;;;;;12.50;6.47;;;2.80;99.90;;;;;;5060137;28;20079;-85
2023/01/19 00:48:57;;;;;;;7.38;4.50;;;2.80;99.90;;;;;;5046117;28;20405;-83
2023/01/19 00:51:24;;;;;;;12.80;4.93;;;2.70;99.90;;;;;;5085304;28;20570;-84
2023/01/19 00:53:50;;;;;;;8.95;5.10;;;2.70;99.90;;;;;;5079294;28;20055;-84
2023/01/19 00:56:16;;;;;;;7.82;5.07;;;2.60;99.90;;;;;;5058121;28;20045;-83
2023/01/19 00:58:43;;;;;;;9.05;5.38;;;2.60;99.90;;;;;;5066394;28;20485;-84
2023/01/19 01:01:10;;;;;;;10.70;6.47;;;2.40;99.90;;;;;;5072262;28;20065;-83
2023/01/19 01:03:36;;;;;;;11.50;6.32;;;2.40;99.90;;;;;;5059429;28;20371;-83
2023/01/19 01:06:02;;;;;;;11.50;6.07;;;2.30;99.90;;;;;;5048959;28;20054;-83
2023/01/19 01:08:29;;;;;;;13.10;6.90;;;2.30;99.90;;;;;;5028102;28;20060;-82
2023/01/19 01:10:55;;;;;;;14.15;6.65;;;2.30;99.90;;;;;;5067097;28;20042;-82
2023/01/19 01:13:21;;;;;;;10.63;6.07;;;2.20;99.90;;;;;;5063046;28;20762;-82
2023/01/19 01:15:51;;;;;;;11.90;6.55;;;2.10;99.90;;;;;;5067711;28;20056;-83
2023/01/19 01:18:17;;;;;;;11.00;6.28;;;2.10;99.90;;;;;;5068038;28;20497;-83
2023/01/19 01:20:42;;;;;;;14.55;6.30;;;2.10;99.90;;;;;;5054970;28;20068;-84
2023/01/19 01:23:08;;;;;;;10.43;5.78;;;2.00;99.90;;;;;;5060019;28;20074;-87
2023/01/19 01:25:36;;;;;;;12.95;5.57;;;2.00;99.90;;;;;;5038846;28;20136;-83
2023/01/19 01:28:05;;;;;;;9.15;4.68;;;2.00;99.90;;;;;;5043209;28;20044;-83
2023/01/19 01:30:31;;;;;;;8.82;4.88;;;2.00;99.90;;;;;;5057483;28;20056;-84
2023/01/19 01:32:57;;;;;;;11.27;5.30;;;2.00;99.90;;;;;;5055080;28;20047;-83
2023/01/19 01:35:22;;;;;;;11.05;5.78;;;2.00;99.90;;;;;;5069877;28;20051;-85
2023/01/19 01:37:48;;;;;;;11.38;5.13;;;2.00;99.90;;;;;;5074170;28;20048;-83
2023/01/19 01:40:16;;;;;;;11.82;5.82;;;2.00;99.90;;;;;;5032611;28;20051;-83
2023/01/19 01:42:42;;;;;;;12.05;5.18;;;2.00;99.90;;;;;;5026591;28;20059;-83
2023/01/19 01:45:34;;;;;;;10.27;4.95;;;2.00;99.90;;;;;;5060003;28;20043;-83
2023/01/19 01:48:15;;;;;;;12.65;6.40;;;2.00;99.90;;;;;;5045083;28;20052;-84
2023/01/19 01:51:22;;;;;;;16.88;6.30;;;2.10;99.90;;;;;;5062008;28;20047;-83
2023/01/19 01:53:34;;;;;;;14.70;6.47;;;2.10;99.90;;;;;;5070797;28;20123;-83
2023/01/19 01:56:03;;;;;;;13.52;6.32;;;2.20;99.90;;;;;;5041697;28;20047;-87
2023/01/19 01:58:31;;;;;;;17.05;7.93;;;2.10;99.90;;;;;;5062898;28;20048;-83
2023/01/19 02:03:41;;;;;;;14.95;7.97;;;2.10;99.90;;;;;;5063625;28;20048;-83
2023/01/19 02:06:07;;;;;;;15.38;8.32;;;2.10;99.90;;;;;;5063465;28;20041;-83
2023/01/19 02:14:22;;;;;;;20.88;8.90;;;2.10;99.90;;;;;;5056696;28;20105;-83
2023/01/19 02:16:48;;;;;;;21.77;10.60;;;2.10;99.90;;;;;;5080430;28;20052;-84
2023/01/19 02:19:21;;;;;;;21.17;9.68;;;2.10;99.90;;;;;;5060811;28;20127;-83
2023/01/19 02:21:56;;;;;;;21.73;9.65;;;2.10;99.90;;;;;;5076041;28;20053;-84
2023/01/19 02:24:23;;;;;;;24.00;11.23;;;2.10;99.90;;;;;;5083117;28;20116;-84
2023/01/19 02:26:49;;;;;;;20.00;9.52;;;2.20;99.90;;;;;;5081994;28;20094;-83
2023/01/19 02:29:21;;;;;;;23.77;10.65;;;2.20;99.90;;;;;;5058890;28;20045;-87
2023/01/19 02:31:47;;;;;;;24.95;11.13;;;2.20;99.90;;;;;;5072696;28;20470;-83
2023/01/19 02:34:18;;;;;;;24.85;10.65;;;2.20;99.90;;;;;;5056590;28;20050;-83
2023/01/19 02:36:49;;;;;;;27.50;11.23;;;2.20;99.90;;;;;;5076448;28;20394;-83
2023/01/19 02:39:18;;;;;;;29.55;12.50;;;2.30;99.90;;;;;;5073155;28;20051;-83
2023/01/19 02:41:57;;;;;;;28.70;11.95;;;2.30;99.90;;;;;;5074458;28;20590;-83
2023/01/19 02:44:25;;;;;;;34.15;13.95;;;2.30;99.90;;;;;;5060805;28;20432;-83
2023/01/19 02:46:53;;;;;;;33.58;13.32;;;2.30;99.90;;;;;;5061503;28;20115;-83
2023/01/19 02:49:19;;;;;;;30.67;13.57;;;2.30;99.90;;;;;;5064749;28;20083;-87
2023/01/19 02:51:44;;;;;;;33.13;14.25;;;2.30;99.90;;;;;;5065829;28;20088;-85
2023/01/19 02:54:33;;;;;;;31.77;14.82;;;2.40;99.90;;;;;;5067325;28;20544;-83
2023/01/19 02:57:42;;;;;;;33.33;14.48;;;2.30;99.90;;;;;;5020281;28;20052;-83
2023/01/19 03:00:13;;;;;;;32.72;14.35;;;2.30;99.90;;;;;;5101534;28;20476;-83
2023/01/19 03:03:10;;;;;;;34.25;16.40;;;2.30;99.90;;;;;;5070021;28;20048;-83
2023/01/19 03:05:52;;;;;;;34.38;15.93;;;2.30;99.90;;;;;;5087538;28;20035;-83
2023/01/19 03:08:31;;;;;;;29.35;14.63;;;2.40;99.90;;;;;;5061679;28;20044;-84
2023/01/19 03:11:03;;;;;;;37.70;15.27;;;2.40;99.90;;;;;;5065518;28;20115;-83
2023/01/19 03:13:51;;;;;;;34.83;16.73;;;2.40;99.90;;;;;;5071560;28;20102;-83
2023/01/19 03:16:24;;;;;;;37.55;15.57;;;2.40;99.90;;;;;;5081140;28;20047;-82
2023/01/19 03:19:13;;;;;;;43.50;19.35;;;2.50;99.90;;;;;;5091519;28;20059;-81
2023/01/19 03:21:44;;;;;;;43.75;16.70;;;2.40;99.90;;;;;;5088029;28;20405;-82
2023/01/19 03:24:10;;;;;;;47.55;17.38;;;2.40;99.90;;;;;;5087322;28;20053;-82
2023/01/19 03:26:48;;;;;;;41.97;17.05;;;2.40;99.90;;;;;;5042265;28;20044;-83
2023/01/19 03:29:17;;;;;;;34.65;15.20;;;2.40;99.90;;;;;;5081181;28;20036;-82
2023/01/19 03:31:47;;;;;;;29.40;13.90;;;2.40;99.90;;;;;;5058899;28;20051;-85
2023/01/19 03:34:14;;;;;;;30.23;13.15;;;2.40;99.90;;;;;;5076010;28;20186;-82
2023/01/19 03:36:47;;;;;;;23.83;11.20;;;2.40;99.90;;;;;;5072815;28;20059;-82
2023/01/19 03:39:18;;;;;;;23.48;11.48;;;2.40;99.90;;;;;;5074500;28;20124;-83
2023/01/19 03:41:47;;;;;;;37.83;14.23;;;2.40;99.90;;;;;;5065847;28;20044;-82
2023/01/19 03:44:13;;;;;;;26.55;12.13;;;2.40;99.90;;;;;;5074824;28;20044;-83
2023/01/19 03:46:39;;;;;;;24.70;11.27;;;2.30;99.90;;;;;;5073014;28;20056;-82
2023/01/19 03:49:06;;;;;;;19.00;9.75;;;2.30;99.90;;;;;;5075873;28;20409;-82
2023/01/19 03:51:36;;;;;;;22.95;10.38;;;2.30;99.90;;;;;;5076426;28;20051;-82
2023/01/19 03:54:03;;;;;;;22.45;9.93;;;2.20;99.90;;;;;;5075566;28;20075;-83
2023/01/19 03:56:28;;;;;;;19.52;9.63;;;2.20;99.90;;;;;;5042367;28;20400;-88
2023/01/19 03:58:54;;;;;;;17.15;8.15;;;2.10;99.90;;;;;;5054693;28;20044;-82
2023/01/19 04:01:23;;;;;;;19.63;9.48;;;2.10;99.90;;;;;;5066421;28;20047;-82
2023/01/19 04:03:50;;;;;;;20.58;9.38;;;2.20;99.90;;;;;;5078883;28;20044;-81
2023/01/19 04:06:16;;;;;;;23.13;9.82;;;2.10;99.90;;;;;;5081169;28;20111;-84
2023/01/19 04:08:42;;;;;;;19.90;8.80;;;2.10;99.90;;;;;;5077805;28;20059;-83
2023/01/19 04:11:08;;;;;;;22.70;10.02;;;2.10;99.90;;;;;;5085797;28;20056;-82
2023/01/19 04:13:34;;;;;;;22.08;9.23;;;2.20;99.90;;;;;;5087456;28;20621;-83
2023/01/19 04:16:01;;;;;;;21.88;9.20;;;2.20;99.90;;;;;;5085354;28;20045;-82
2023/01/19 04:18:29;;;;;;;21.60;9.25;;;2.10;99.90;;;;;;5059001;28;20132;-82
2023/01/19 04:20:54;;;;;;;24.77;9.85;;;2.10;99.90;;;;;;5053559;28;20048;-82
2023/01/19 04:23:20;;;;;;;17.90;8.48;;;2.10;99.90;;;;;;5054187;28;20094;-82
2023/01/19 04:25:46;;;;;;;20.95;8.48;;;2.00;99.90;;;;;;5086402;28;20043;-82
2023/01/19 04:28:12;;;;;;;18.45;7.82;;;2.10;99.90;;;;;;5058301;28;20040;-82
2023/01/19 04:30:37;;;;;;;19.42;7.80;;;2.10;99.90;;;;;;5068858;28;20051;-82
2023/01/19 04:33:03;;;;;;;24.73;8.50;;;2.10;99.90;;;;;;5073354;28;20140;-83
2023/01/19 04:35:29;;;;;;;22.40;7.90;;;2.10;99.90;;;;;;5074144;28;20043;-82
2023/01/19 04:37:55;;;;;;;23.83;8.55;;;2.10;99.90;;;;;;5090277;28;20067;-82
2023/01/19 04:40:20;;;;;;;18.85;7.20;;;2.10;99.90;;;;;;5072167;28;20040;-83
2023/01/19 04:42:46;;;;;;;16.88;7.10;;;2.20;99.90;;;;;;5064326;28;20066;-83
2023/01/19 04:45:12;;;;;;;18.52;7.60;;;2.10;99.90;;;;;;5072153;28;20097;-83
2023/01/19 04:47:38;;;;;;;18.88;7.32;;;2.20;99.90;;;;;;5080951;28;20067;-82
2023/01/19 04:50:06;;;;;;;20.17;7.78;;;2.20;99.90;;;;;;5074477;28;20044;-82
2023/01/19 04:52:33;;;;;;;18.05;7.07;;;2.20;99.90;;;;;;5072122;28;20067;-83
2023/01/19 04:55:00;;;;;;;18.70;7.15;;;2.20;99.90;;;;;;5042839;28;20052;-85
2023/01/19 04:57:26;;;;;;;20.48;6.93;;;2.30;99.90;;;;;;5058195;28;20071;-82
2023/01/19 04:59:51;;;;;;;19.45;7.70;;;2.20;99.90;;;;;;5061148;28;20044;-82
2023/01/19 05:02:17;;;;;;;16.25;6.72;;;2.20;99.90;;;;;;5084584;28;20486;-81
2023/01/19 05:04:44;;;;;;;16.58;6.50;;;2.20;99.90;;;;;;5069930;28;20101;-83
2023/01/19 05:07:10;;;;;;;17.50;6.07;;;2.20;99.90;;;;;;5064622;28;20447;-82
2023/01/19 05:09:35;;;;;;;19.58;6.53;;;2.30;99.90;;;;;;5065800;28;20048;-83
2023/01/19 05:12:01;;;;;;;19.02;5.88;;;2.30;99.90;;;;;;5107789;28;20097;-82
2023/01/19 05:14:27;;;;;;;15.77;5.25;;;2.30;99.90;;;;;;5078445;28;20074;-81
2023/01/19 05:16:52;;;;;;;18.50;5.57;;;2.40;99.90;;;;;;5070813;28;20130;-82
2023/01/19 05:19:18;;;;;;;16.20;5.70;;;2.30;99.90;;;;;;5067577;28;20043;-83
2023/01/19 05:21:44;;;;;;;11.98;4.70;;;2.30;99.90;;;;;;5031452;28;20048;-82
2023/01/19 05:24:09;;;;;;;13.75;4.75;;;2.30;99.90;;;;;;5053820;28;20052;-86
2023/01/19 05:26:35;;;;;;;15.45;5.20;;;2.30;99.90;;;;;;5074516;28;20089;-84
2023/01/19 05:29:01;;;;;;;11.80;4.18;;;2.30;99.90;;;;;;5104921;27;20117;-82
2023/01/19 05:31:26;;;;;;;14.70;4.47;;;2.30;99.90;;;;;;5085661;28;20047;-85
2023/01/19 05:33:52;;;;;;;14.02;4.60;;;2.30;99.90;;;;;;5052129;28;20044;-84
2023/01/19 05:36:17;;;;;;;12.35;3.95;;;2.40;99.90;;;;;;5057201;28;20122;-82
2023/01/19 05:38:43;;;;;;;10.07;3.42;;;2.40;99.90;;;;;;5053543;28;20044;-83
2023/01/19 05:41:09;;;;;;;16.35;4.40;;;2.40;99.90;;;;;;5064223;28;20047;-78
2023/01/19 05:43:34;;;;;;;15.73;4.00;;;2.50;99.90;;;;;;5084249;28;20052;-78
2023/01/19 05:46:03;;;;;;;17.73;4.47;;;2.40;99.90;;;;;;5073941;28;20044;-78
2023/01/19 05:48:29;;;;;;;21.40;4.05;;;2.40;99.90;;;;;;5074528;28;20067;-80
2023/01/19 05:50:59;;;;;;;14.52;4.57;;;2.50;99.90;;;;;;5071050;28;20476;-85
2023/01/19 05:53:24;;;;;;;13.82;4.38;;;2.60;99.90;;;;;;5091619;28;20126;-87
2023/01/19 05:55:50;;;;;;;25.25;8.05;;;2.60;99.90;;;;;;5070407;28;20135;-83
2023/01/19 05:58:16;;;;;;;14.20;5.57;;;2.70;99.90;;;;;;5067818;28;20051;-83
2023/01/19 06:00:42;;;;;;;9.90;2.80;;;2.70;99.90;;;;;;5054059;28;20048;-84
2023/01/19 06:03:07;;;;;;;10.55;2.60;;;2.60;99.90;;;;;;5061838;28;20039;-85
2023/01/19 06:05:34;;;;;;;8.95;2.53;;;2.60;99.90;;;;;;5040778;28;20478;-86
2023/01/19 06:08:00;;;;;;;4.88;2.47;;;2.60;99.90;;;;;;5088790;28;20465;-85
2023/01/19 06:10:26;;;;;;;7.75;2.70;;;2.60;99.90;;;;;;5069840;28;20055;-86
2023/01/19 06:12:52;;;;;;;8.90;3.20;;;2.50;99.90;;;;;;5075024;28;20036;-83
2023/01/19 06:15:18;;;;;;;9.45;2.22;;;2.50;99.90;;;;;;5070070;28;20039;-84
2023/01/19 06:17:44;;;;;;;9.95;2.00;;;2.50;99.90;;;;;;5068114;28;20097;-87
2023/01/19 06:20:12;;;;;;;7.22;1.65;;;2.50;99.90;;;;;;5052925;28;20496;-86
2023/01/19 06:22:38;;;;;;;7.30;1.90;;;2.50;99.90;;;;;;5080781;28;20138;-84
2023/01/19 06:25:07;;;;;;;7.18;1.98;;;2.60;99.90;;;;;;5059759;28;20131;-83
2023/01/19 06:27:33;;;;;;;13.75;1.90;;;2.50;99.90;;;;;;5082917;28;20495;-85
2023/01/19 06:29:58;;;;;;;11.00;2.22;;;2.50;99.90;;;;;;5064255;28;20086;-82
2023/01/19 06:32:24;;;;;;;11.43;2.28;;;2.60;99.90;;;;;;5043840;28;20079;-84
2023/01/19 06:34:50;;;;;;;10.27;2.10;;;2.50;99.90;;;;;;5074314;28;20048;-86
2023/01/19 06:37:16;;;;;;;18.58;3.22;;;2.60;99.90;;;;;;5054228;28;20123;-85
2023/01/19 06:39:45;;;;;;;10.48;2.17;;;2.50;99.90;;;;;;5056739;28;20048;-84
2023/01/19 06:42:11;;;;;;;12.82;3.33;;;2.50;99.90;;;;;;5072773;28;20051;-84
2023/01/19 06:44:36;;;;;;;15.38;2.22;;;2.60;99.90;;;;;;5078129;28;20051;-86
2023/01/19 06:47:02;;;;;;;9.30;2.03;;;2.40;99.90;;;;;;5078224;28;20031;-84
2023/01/19 06:49:31;;;;;;;11.45;2.42;;;2.50;99.90;;;;;;5050017;28;20063;-85
2023/01/19 06:51:57;;;;;;;11.32;3.00;;;2.50;99.90;;;;;;5093516;28;20071;-85
2023/01/19 06:54:22;;;;;;;10.65;2.08;;;2.60;99.90;;;;;;5056689;28;20083;-85
2023/01/19 06:56:48;;;;;;;9.85;2.08;;;2.60;99.90;;;;;;5044773;28;20055;-85
2023/01/19 06:59:14;;;;;;;10.27;2.22;;;2.60;99.90;;;;;;5071643;28;20051;-85
2023/01/19 07:01:39;;;;;;;10.98;1.98;;;2.80;99.90;;;;;;5096961;28;20490;-85
2023/01/19 07:04:05;;;;;;;13.40;1.77;;;2.80;99.90;;;;;;5060051;28;20047;-85
2023/01/19 07:06:31;;;;;;;8.52;1.40;;;2.60;99.90;;;;;;5063356;28;20043;-84
2023/01/19 07:08:59;;;;;;;8.68;1.73;;;2.60;99.90;;;;;;5079250;28;20055;-85
2023/01/19 07:11:24;;;;;;;6.93;1.10;;;2.70;99.90;;;;;;5076374;28;20044;-84
2023/01/19 07:13:53;;;;;;;12.05;3.17;;;2.50;99.90;;;;;;5072236;28;20043;-84
2023/01/19 07:16:19;;;;;;;10.27;2.13;;;2.50;99.90;;;;;;5077547;28;20430;-84
2023/01/19 07:18:47;;;;;;;10.95;1.58;;;2.50;99.90;;;;;;5060252;28;20050;-86
2023/01/19 07:21:13;;;;;;;9.13;2.13;;;2.40;99.90;;;;;;5095751;28;20100;-85
2023/01/19 07:23:42;;;;;;;10.23;1.95;;;2.50;99.90;;;;;;5076085;28;20052;-85
2023/01/19 07:26:09;;;;;;;9.07;1.70;;;2.40;99.90;;;;;;5079685;28;20054;-84
2023/01/19 07:28:36;;;;;;;15.93;2.20;;;2.50;99.90;;;;;;5080022;28;20069;-89
2023/01/19 07:31:04;;;;;;;10.52;1.85;;;2.50;99.90;;;;;;5078833;28;20100;-85
2023/01/19 07:33:32;;;;;;;20.15;2.28;;;2.60;99.90;;;;;;5067629;28;20460;-84
2023/01/19 07:35:58;;;;;;;18.17;2.25;;;2.60;99.90;;;;;;5078162;28;20044;-84
2023/01/19 07:38:24;;;;;;;11.57;1.80;;;2.60;99.90;;;;;;5062834;28;20077;-86
2023/01/19 07:40:50;;;;;;;10.63;1.67;;;2.60;99.90;;;;;;5075626;28;20126;-84
2023/01/19 07:43:18;;;;;;;19.98;2.42;;;2.60;99.90;;;;;;5059520;28;20047;-85
2023/01/19 07:45:46;;;;;;;10.13;1.73;;;2.60;99.90;;;;;;5069863;28;20044;-85
2023/01/19 07:48:14;;;;;;;17.35;2.97;;;2.70;99.90;;;;;;5070482;28;20524;-84
2023/01/19 07:50:42;;;;;;;21.90;2.30;;;2.60;99.90;;;;;;5092825;28;20047;-85
2023/01/19 07:53:10;;;;;;;15.40;2.33;;;2.60;99.90;;;;;;5085225;28;20040;-84
2023/01/19 07:55:38;;;;;;;11.05;1.92;;;2.60;99.90;;;;;;5089431;28;20048;-85
2023/01/19 07:58:06;;;;;;;17.75;3.30;;;2.60;99.90;;;;;;5057154;28;20423;-84
2023/01/19 08:00:33;;;;;;;15.32;1.88;;;2.60;99.90;;;;;;5066694;28;20059;-86
2023/01/19 08:03:00;;;;;;;16.10;1.60;;;2.70;99.90;;;;;;5087046;28;20210;-89
2023/01/19 08:05:28;;;;;;;18.08;2.38;;;2.80;99.90;;;;;;5076784;28;20039;-84
2023/01/19 08:07:56;;;;;;;15.05;1.92;;;2.90;99.90;;;;;;5075941;28;20095;-84
2023/01/19 08:10:24;;;;;;;13.00;1.90;;;2.90;99.90;;;;;;5077855;28;20136;-84
2023/01/19 08:12:51;;;;;;;16.42;2.30;;;2.90;99.90;;;;;;5079278;28;20054;-84
2023/01/19 08:15:17;;;;;;;15.70;2.17;;;2.90;99.90;;;;;;5078593;28;20054;-85
2023/01/19 08:17:43;;;;;;;14.82;1.80;;;2.70;99.90;;;;;;5082659;28;20131;-85
2023/01/19 08:20:10;;;;;;;23.42;2.85;;;2.70;99.90;;;;;;5080827;28;20040;-83
2023/01/19 08:22:36;;;;;;;23.55;2.95;;;2.70;99.90;;;;;;5071750;28;20492;-86
2023/01/19 08:25:02;;;;;;;16.42;2.80;;;2.80;99.90;;;;;;5058177;28;20052;-90
2023/01/19 08:27:29;;;;;;;20.88;2.70;;;2.70;99.90;;;;;;5076251;28;20051;-84
2023/01/19 08:29:55;;;;;;;12.60;1.52;;;2.70;99.90;;;;;;5075135;28;20409;-84
2023/01/19 08:32:20;;;;;;;24.77;3.15;;;2.70;99.90;;;;;;5041799;28;20055;-84
2023/01/19 08:34:46;;;;;;;18.15;3.35;;;2.70;99.90;;;;;;5053141;28;20048;-85
2023/01/19 08:37:12;;;;;;;19.13;4.00;;;2.70;99.90;;;;;;5074506;28;20047;-85
2023/01/19 08:39:37;;;;;;;22.23;3.08;;;2.60;99.90;;;;;;5042190;28;20046;-84
2023/01/19 08:42:04;;;;;;;21.23;2.25;;;2.70;99.90;;;;;;5075696;28;20043;-91
2023/01/19 08:44:32;;;;;;;21.13;2.30;;;2.60;99.90;;;;;;5067335;28;20485;-84
2023/01/19 08:46:58;;;;;;;17.30;2.00;;;2.60;99.90;;;;;;5060255;28;20055;-84
2023/01/19 08:49:24;;;;;;;10.35;1.90;;;2.80;99.90;;;;;;5094277;28;20607;-84
2023/01/19 08:51:50;;;;;;;13.45;2.03;;;2.70;99.90;;;;;;5075082;28;20051;-84
2023/01/19 08:54:15;;;;;;;14.45;2.58;;;2.60;99.90;;;;;;5061322;28;20085;-84
2023/01/19 08:56:42;;;;;;;21.77;3.13;;;2.60;99.90;;;;;;5064055;28;20043;-84
2023/01/19 08:59:07;;;;;;;14.38;2.83;;;2.60;99.90;;;;;;5077820;28;20052;-88
2023/01/19 09:01:33;;;;;;;20.63;3.40;;;2.60;99.90;;;;;;5074976;28;20084;-85
2023/01/19 09:03:59;;;;;;;24.83;3.35;;;2.60;99.90;;;;;;5077934;28;20039;-84
2023/01/19 09:06:24;;;;;;;18.23;3.55;;;2.60;99.90;;;;;;5073765;28;20569;-84
2023/01/19 09:08:50;;;;;;;23.27;3.10;;;2.70;99.90;;;;;;5081190;28;20056;-85
2023/01/19 09:11:16;;;;;;;30.15;3.97;;;2.70;99.90;;;;;;5085942;28;20146;-85
2023/01/19 09:13:42;;;;;;;17.20;3.30;;;2.70;99.90;;;;;;5069351;28;20169;-85
2023/01/19 09:16:12;;;;;;;20.85;3.30;;;2.70;99.90;;;;;;5092705;28;20483;-85
2023/01/19 09:18:38;;;;;;;18.88;2.33;;;2.80;99.90;;;;;;5061318;28;20043;-85
2023/01/19 09:21:04;;;;;;;22.05;2.50;;;2.80;99.90;;;;;;5073827;28;20196;-85
2023/01/19 09:23:30;;;;;;;23.13;3.45;;;2.70;99.90;;;;;;5060541;28;20852;-86
2023/01/19 09:26:01;;;;;;;27.83;3.20;;;2.80;99.90;;;;;;5073079;28;20119;-85
2023/01/19 09:28:28;;;;;;;23.73;3.13;;;2.80;99.90;;;;;;5069367;28;20039;-86
2023/01/19 09:30:54;;;;;;;20.88;3.42;;;2.60;99.90;;;;;;5077256;28;20133;-86
2023/01/19 09:33:20;;;;;;;18.50;4.13;;;2.60;99.90;;;;;;5077672;28;20508;-85
2023/01/19 09:35:47;;;;;;;25.58;5.15;;;2.70;99.90;;;;;;5060843;28;20439;-85
2023/01/19 09:38:15;;;;;;;18.85;4.20;;;2.60;99.90;;;;;;5068125;28;20079;-85
2023/01/19 09:40:48;;;;;;;19.58;3.75;;;2.60;99.90;;;;;;5064063;28;20075;-85
2023/01/19 09:43:36;;;;;;;22.67;4.45;;;2.60;99.90;;;;;;5077442;28;20051;-85
2023/01/19 09:46:16;;;;;;;20.17;3.35;;;2.60;99.90;;;;;;5083451;28;20051;-85
2023/01/19 09:48:46;;;;;;;24.75;3.95;;;2.70;99.90;;;;;;5076764;28;20551;-85
2023/01/19 09:51:40;;;;;;;27.20;3.55;;;2.50;99.90;;;;;;5093999;28;20496;-90
2023/01/19 09:54:39;;;;;;;14.00;2.45;;;2.50;99.90;;;;;;5088045;28;20062;-86
2023/01/19 09:57:10;;;;;;;22.25;4.63;;;2.50;99.90;;;;;;5086654;28;20058;-85
2023/01/19 09:59:37;;;;;;;29.92;5.80;;;2.50;99.90;;;;;;5064388;28;20127;-85
2023/01/19 10:02:14;;;;;;;31.67;3.80;;;2.70;99.90;;;;;;5044637;28;20062;-85
2023/01/19 10:04:48;;;;;;;22.77;3.33;;;2.60;99.90;;;;;;5073886;28;20160;-86
2023/01/19 10:07:22;;;;;;;23.33;3.20;;;2.70;99.90;;;;;;5093267;28;20047;-89
2023/01/19 10:10:10;;;;;;;21.38;4.40;;;2.80;99.90;;;;;;5063314;28;20213;-85
2023/01/19 10:12:56;;;;;;;26.70;5.25;;;2.80;99.90;;;;;;5076921;28;20293;-85
2023/01/19 10:15:59;;;;;;;45.67;14.00;;;2.90;99.90;;;;;;5094192;28;20052;-85
2023/01/19 10:18:44;;;;;;;36.90;11.98;;;3.00;99.90;;;;;;5088681;28;20042;-85
2023/01/19 10:21:21;;;;;;;22.92;3.75;;;3.00;99.90;;;;;;5085315;28;20118;-85
2023/01/19 10:23:59;;;;;;;21.30;2.63;;;3.10;99.90;;;;;;5080961;28;20058;-85
2023/01/19 10:26:32;;;;;;;24.50;2.67;;;3.10;99.90;;;;;;5081016;28;20472;-85
2023/01/19 10:29:09;;;;;;;19.02;3.45;;;3.20;99.90;;;;;;5080789;28;20476;-84
2023/01/19 10:31:38;;;;;;;17.00;2.75;;;3.30;99.90;;;;;;5086045;28;20117;-85
2023/01/19 10:34:03;;;;;;;13.32;2.17;;;3.40;99.90;;;;;;5079994;28;20039;-85
2023/01/19 10:36:38;;;;;;;18.52;2.72;;;3.70;99.90;;;;;;5063927;28;20051;-85
2023/01/19 10:39:10;;;;;;;12.40;3.00;;;3.80;99.90;;;;;;5091487;28;20444;-85
2023/01/19 10:41:51;;;;;;;10.65;2.13;;;3.70;99.90;;;;;;5056543;28;20051;-86
2023/01/19 10:44:32;;;;;;;18.85;2.67;;;3.60;99.90;;;;;;5077647;28;20054;-89
2023/01/19 10:47:03;;;;;;;17.83;3.65;;;3.60;99.90;;;;;;5062088;28;20048;-85
2023/01/19 10:49:34;;;;;;;18.98;2.05;;;3.60;99.90;;;;;;5080070;28;20044;-85
2023/01/19 10:52:01;;;;;;;16.85;2.20;;;3.60;99.90;;;;;;5091879;28;20432;-85
2023/01/19 10:54:30;;;;;;;16.48;2.03;;;3.60;99.90;;;;;;5056235;28;20368;-85
2023/01/19 10:57:03;;;;;;;13.65;1.90;;;3.60;99.90;;;;;;5099557;28;20040;-85
2023/01/19 10:59:49;;;;;;;25.63;3.97;;;3.60;99.90;;;;;;5102174;28;20055;-84
2023/01/19 11:02:20;;;;;;;16.25;2.20;;;3.60;99.90;;;;;;5080806;28;20039;-84
2023/01/19 11:04:51;;;;;;;15.75;2.83;;;3.60;99.90;;;;;;5079249;28;20036;-85
2023/01/19 11:07:35;;;;;;;19.17;2.33;;;3.70;99.90;;;;;;5072300;28;20153;-84
2023/01/19 11:10:22;;;;;;;12.88;2.90;;;3.70;99.90;;;;;;5087943;28;20048;-85
2023/01/19 11:13:02;;;;;;;9.98;3.08;;;3.80;99.90;;;;;;5099818;28;20047;-85
2023/01/19 11:15:31;;;;;;;17.08;1.90;;;3.70;99.90;;;;;;5080018;28;20536;-85
2023/01/19 11:17:57;;;;;;;15.27;2.30;;;3.70;99.90;;;;;;5096643;28;20047;-85
2023/01/19 11:20:25;;;;;;;14.85;1.90;;;3.70;99.90;;;;;;5105692;28;20039;-89
2023/01/19 11:23:26;;;;;;;19.15;2.97;;;4.00;99.90;;;;;;5092924;28;20129;-86
2023/01/19 11:25:55;;;;;;;9.77;2.03;;;3.90;99.90;;;;;;5075517;28;20028;-84
2023/01/19 11:28:26;;;;;;;15.43;1.88;;;3.90;99.90;;;;;;5085124;28;20129;-84
2023/01/19 11:31:00;;;;;;;13.35;1.60;;;3.90;99.90;;;;;;5076444;28;20044;-85
2023/01/19 11:33:35;;;;;;;16.55;1.52;;;4.00;99.90;;;;;;5072617;28;20095;-90
2023/01/19 11:36:12;;;;;;;8.03;1.30;;;3.90;99.90;;;;;;5089303;28;20547;-85
2023/01/19 11:38:43;;;;;;;11.52;1.33;;;3.90;99.90;;;;;;5100568;28;20044;-85
2023/01/19 11:41:15;;;;;;;8.82;1.55;;;3.90;99.90;;;;;;5079757;28;20055;-85
2023/01/19 11:43:41;;;;;;;12.50;1.40;;;3.90;99.90;;;;;;5079076;28;20460;-85
2023/01/19 11:46:11;;;;;;;10.23;1.75;;;3.90;99.90;;;;;;5062925;28;20075;-85
2023/01/19 11:49:00;;;;;;;13.48;1.52;;;4.00;99.90;;;;;;5078660;28;20118;-85
2023/01/19 11:52:10;;;;;;;10.32;1.33;;;3.90;99.90;;;;;;5079404;28;20078;-89
2023/01/19 11:54:46;;;;;;;11.95;1.52;;;4.00;99.90;;;;;;5029108;28;20134;-87
2023/01/19 11:57:15;;;;;;;11.48;1.70;;;4.00;99.90;;;;;;5067149;28;20055;-87
2023/01/19 11:59:42;;;;;;;12.73;1.75;;;4.00;99.90;;;;;;5088905;28;20067;-87
2023/01/19 12:02:26;;;;;;;8.35;1.40;;;4.00;99.90;;;;;;5076774;28;20163;-85
2023/01/19 12:04:57;;;;;;;13.00;1.10;;;4.10;99.90;;;;;;5093698;28;20044;-85
2023/01/19 12:07:31;;;;;;;7.72;0.90;;;4.10;99.90;;;;;;5078647;28;20060;-85
2023/01/19 12:10:16;;;;;;;9.07;1.33;;;4.20;99.90;;;;;;5065237;28;20059;-86
2023/01/19 12:12:43;;;;;;;6.53;1.30;;;4.10;99.90;;;;;;5093719;28;20704;-86
2023/01/19 12:15:23;;;;;;;7.88;1.52;;;4.20;99.90;;;;;;5071935;28;20059;-85
2023/01/19 12:17:51;;;;;;;12.32;1.10;;;4.20;99.90;;;;;;5064647;28;20055;-85
2023/01/19 12:20:34;;;;;;;8.65;1.10;;;4.20;99.90;;;;;;5075255;28;20052;-85
2023/01/19 12:23:12;;;;;;;;;;;4.10;99.90;;;;;;5076445;28;20493;-86
2023/01/19 12:25:50;;;;;;;11.07;1.65;;;4.00;99.90;;;;;;5078895;28;20269;-85
2023/01/19 12:28:17;;;;;;;4.70;0.90;;;4.00;99.90;;;;;;5078739;28;20104;-85
2023/01/19 12:30:43;;;;;;;9.25;1.27;;;3.90;99.90;;;;;;5062331;28;20131;-85
2023/01/19 12:33:36;;;;;;;16.17;4.55;;;3.90;99.90;;;;;;5059191;28;20081;-85
2023/01/19 12:36:15;;;;;;;8.52;1.10;;;4.00;99.90;;;;;;5064276;28;20078;-86
2023/01/19 12:39:07;;;;;;;5.53;0.95;;;4.00;99.90;;;;;;5077797;28;20111;-84
2023/01/19 12:41:35;;;;;;;7.55;1.27;;;4.10;99.90;;;;;;5078503;28;20066;-88
2023/01/19 12:44:14;;;;;;;13.15;1.20;;;4.10;99.90;;;;;;5079854;28;20073;-85
2023/01/19 12:46:50;;;;;;;11.95;1.38;;;4.30;99.90;;;;;;5078277;28;20122;-85
2023/01/19 12:49:22;;;;;;;10.68;1.45;;;4.30;99.90;;;;;;5095484;28;20130;-85
2023/01/19 12:51:49;;;;;;;8.85;1.45;;;4.40;99.90;;;;;;5078527;28;20052;-84
2023/01/19 12:54:30;;;;;;;10.07;1.50;;;4.50;99.90;;;;;;5058804;28;20044;-85
2023/01/19 12:57:05;;;;;;;6.22;1.35;;;4.60;99.90;;;;;;5069685;28;20054;-85
2023/01/19 12:59:34;;;;;;;12.82;2.13;;;4.70;99.90;;;;;;5082653;28;20500;-85
2023/01/19 13:02:19;;;;;;;8.30;1.40;;;4.70;99.90;;;;;;5078284;28;20074;-84
2023/01/19 13:05:18;;;;;;;3.78;1.77;;;4.70;99.90;;;;;;5089340;28;20044;-85
2023/01/19 13:08:11;;;;;;;14.27;2.08;;;4.70;99.90;;;;;;5074390;28;20039;-85
2023/01/19 13:10:58;;;;;;;8.40;2.65;;;4.70;99.90;;;;;;5060471;28;20458;-87
2023/01/19 13:13:30;;;;;;;12.27;2.67;;;4.70;99.90;;;;;;5075013;28;20062;-85
2023/01/19 13:16:19;;;;;;;10.05;1.30;;;4.70;99.90;;;;;;5073090;28;20133;-86